Time;durP1;ratioP1;P1;durP2;ratioP2;P2;SDS_P1;SDS_P2;PMS_P1;PMS_P2;Temp;Humidity;BMP_temperature;BMP_pressure;BME280_temperature;BME280_humidity;BME280_pressure;Samples;Min_cycle;Max_cycle;Signal;HPM_P1;HPM_P2
2021/10/16 00:04:06;;;;;;;5.03;3.20;;;;;;;9.25;100.00;100371.34;20909030;28;20226;-66
2021/10/16 00:14:08;;;;;;;6.37;3.33;;;;;;;9.30;100.00;100372.75;20909088;28;20317;-66
2021/10/16 00:24:12;;;;;;;4.53;2.90;;;;;;;9.34;100.00;100381.44;20908528;28;20241;-66
2021/10/16 00:44:14;;;;;;;5.33;4.20;;;;;;;9.33;100.00;100385.91;21073984;27;20566;-65
2021/10/16 00:54:17;;;;;;;9.57;4.70;;;;;;;9.33;100.00;100398.38;21057352;27;20309;-65
2021/10/16 01:04:20;;;;;;;8.93;4.83;;;;;;;9.36;100.00;100407.03;21056637;27;20630;-65
2021/10/16 01:14:31;;;;;;;9.80;4.77;;;;;;;9.40;100.00;100397.09;21057099;27;20275;-66
2021/10/16 01:34:32;;;;;;;7.07;4.57;;;;;;;9.28;100.00;100406.63;21063952;27;20567;-67
2021/10/16 01:44:34;;;;;;;6.87;4.17;;;;;;;9.35;100.00;100415.97;21057586;28;20214;-67
2021/10/16 01:54:38;;;;;;;6.33;4.07;;;;;;;9.33;100.00;100433.84;21057692;28;20229;-67
2021/10/16 02:04:40;;;;;;;6.83;4.27;;;;;;;9.33;100.00;100433.00;21057371;28;20596;-66
2021/10/16 02:14:45;;;;;;;5.37;3.80;;;;;;;9.32;100.00;100439.25;21055367;28;20264;-66
2021/10/16 02:24:50;;;;;;;8.07;4.17;;;;;;;9.32;100.00;100431.25;21054234;28;22601;-66
2021/10/16 02:34:55;;;;;;;6.40;3.87;;;;;;;9.31;100.00;100466.84;21053742;28;20723;-65
2021/10/16 02:44:57;;;;;;;6.17;3.67;;;;;;;9.28;100.00;100464.38;21003443;28;20322;-67
2021/10/16 02:55:01;;;;;;;10.90;4.70;;;;;;;9.34;100.00;100477.31;20997735;28;20261;-67
2021/10/16 03:05:17;;;;;;;10.53;5.40;;;;;;;9.38;100.00;100473.53;20995226;28;20618;-66
2021/10/16 03:25:17;;;;;;;10.80;5.93;;;;;;;9.32;100.00;100480.06;21164346;27;20309;-66
2021/10/16 03:45:21;;;;;;;9.07;5.63;;;;;;;9.40;100.00;100508.94;20905455;28;20574;-66
2021/10/16 04:05:21;;;;;;;7.80;4.77;;;;;;;9.42;100.00;100522.19;21071433;27;20602;-66
2021/10/16 04:15:24;;;;;;;8.50;4.50;;;;;;;9.39;100.00;100508.09;21058799;27;20603;-66
2021/10/16 04:35:29;;;;;;;6.57;4.47;;;;;;;9.43;100.00;100529.19;21031260;27;21092;-67
2021/10/16 04:45:31;;;;;;;8.77;5.30;;;;;;;9.33;100.00;100526.19;21057569;27;20232;-67
2021/10/16 04:55:35;;;;;;;7.40;4.90;;;;;;;9.35;100.00;100545.63;21056889;27;20244;-66
2021/10/16 05:15:35;;;;;;;9.33;5.43;;;;;;;9.29;100.00;100549.50;21232286;27;20564;-66
2021/10/16 05:35:43;;;;;;;6.90;4.10;;;;;;;9.38;100.00;100577.41;21069600;27;20578;-67
2021/10/16 05:45:48;;;;;;;6.73;4.07;;;;;;;9.38;100.00;100585.41;21039930;28;20220;-63
2021/10/16 05:55:52;;;;;;;7.03;3.80;;;;;;;9.52;100.00;100595.31;21055911;28;20587;-66
2021/10/16 06:05:58;;;;;;;5.40;3.10;;;;;;;9.56;100.00;100615.47;21038381;28;20219;-67
2021/10/16 06:16:03;;;;;;;9.07;2.97;;;;;;;9.62;100.00;100621.34;21063320;28;20217;-68
2021/10/16 06:26:06;;;;;;;4.43;2.57;;;;;;;9.60;100.00;100615.25;21120207;28;20244;-64
2021/10/16 06:36:09;;;;;;;6.50;2.70;;;;;;;9.72;100.00;100649.19;21111318;28;20316;-66
2021/10/16 06:46:19;;;;;;;8.17;3.70;;;;;;;9.68;100.00;100658.28;20991300;28;20265;-65
2021/10/16 06:56:41;;;;;;;7.30;4.70;;;;;;;9.78;100.00;100674.63;20984602;28;20231;-64
2021/10/16 07:06:44;;;;;;;9.27;6.03;;;;;;;10.03;100.00;100679.47;20870807;28;57194;-68
2021/10/16 07:27:21;;;;;;;9.63;4.90;;;;;;;10.43;100.00;100705.63;20987170;27;20572;-71
2021/10/16 07:37:24;;;;;;;10.17;4.40;;;;;;;10.20;100.00;100705.22;21011641;27;20246;-71
2021/10/16 07:47:29;;;;;;;8.07;3.23;;;;;;;10.44;100.00;100728.69;21064898;27;20225;-66
2021/10/16 07:57:33;;;;;;;6.90;3.40;;;;;;;11.09;100.00;100741.81;21088235;27;20234;-68
2021/10/16 08:07:38;;;;;;;13.60;4.93;;;;;;;11.40;100.00;100728.31;21099953;27;20326;-69
2021/10/16 08:17:44;;;;;;;9.37;4.23;;;;;;;11.07;100.00;100751.72;21101245;27;20233;-64
2021/10/16 08:27:49;;;;;;;12.67;3.50;;;;;;;11.09;100.00;100737.34;21047032;27;20223;-67
2021/10/16 08:37:52;;;;;;;11.20;3.70;;;;;;;11.07;100.00;100757.94;20937340;28;20227;-64
2021/10/16 08:47:58;;;;;;;15.10;3.60;;;;;;;10.95;100.00;100753.31;20914440;28;20234;-63
2021/10/16 08:58:02;;;;;;;9.70;3.30;;;;;;;11.72;100.00;100769.09;20913310;27;20768;-61
2021/10/16 09:08:08;;;;;;;8.00;3.30;;;;;;;12.44;100.00;100765.41;20918523;28;20228;-67
2021/10/16 09:18:12;;;;;;;13.43;8.37;;;;;;;11.81;100.00;100784.63;20907838;28;20234;-67
2021/10/16 09:28:18;;;;;;;9.30;5.43;;;;;;;12.37;100.00;100793.56;20911434;28;20234;-63
2021/10/16 09:38:41;;;;;;;8.77;4.20;;;;;;;12.30;100.00;100808.31;20967084;28;20242;-64
2021/10/16 09:48:47;;;;;;;7.57;3.97;;;;;;;11.85;100.00;100812.88;20986931;28;20287;-67
2021/10/16 09:58:51;;;;;;;9.10;4.37;;;;;;;11.89;100.00;100818.91;20984048;28;20229;-67
2021/10/16 10:08:57;;;;;;;13.13;5.03;;;;;;;11.75;100.00;100819.75;20985872;28;20219;-69
2021/10/16 10:19:02;;;;;;;10.10;4.10;;;;;;;11.42;100.00;100819.09;20988732;28;20231;-68
2021/10/16 10:29:08;;;;;;;9.97;4.30;;;;;;;12.17;100.00;100821.59;20989466;28;20447;-68
2021/10/16 10:39:51;;;;;;;6.90;4.00;;;;;;;12.43;98.50;100824.44;20988710;28;20628;-69
2021/10/16 10:49:58;;;;;;;10.67;4.03;;;;;;;11.76;100.00;100818.78;20979143;28;20217;-68
2021/10/16 11:00:03;;;;;;;10.70;4.13;;;;;;;11.59;100.00;100818.94;20987485;28;20238;-68
2021/10/16 11:10:09;;;;;;;8.20;3.97;;;;;;;12.16;100.00;100827.91;20904037;28;20232;-66
2021/10/16 11:20:16;;;;;;;11.53;5.67;;;;;;;11.90;100.00;100826.84;20903713;28;20254;-67
2021/10/16 11:30:21;;;;;;;11.37;5.43;;;;;;;11.50;100.00;100827.50;20903552;28;20259;-67
2021/10/16 11:40:26;;;;;;;12.60;6.17;;;;;;;11.83;100.00;100825.47;20980518;28;20371;-68
2021/10/16 11:50:33;;;;;;;12.73;6.03;;;;;;;11.75;100.00;100829.56;20950153;28;20290;-67
2021/10/16 12:00:38;;;;;;;14.23;8.43;;;;;;;11.79;100.00;100805.25;20917016;28;20228;-69
2021/10/16 12:10:49;;;;;;;12.97;7.90;;;;;;;11.57;100.00;100823.53;20909578;28;20713;-68
2021/10/16 12:20:55;;;;;;;17.23;7.97;;;;;;;11.43;100.00;100816.31;20973786;28;20230;-67
2021/10/16 12:31:07;;;;;;;11.57;6.20;;;;;;;11.55;100.00;100820.06;20970889;28;20240;-67
2021/10/16 12:41:22;;;;;;;12.40;6.63;;;;;;;11.29;100.00;100835.00;20961818;28;20604;-68
2021/10/16 12:51:52;;;;;;;13.13;6.50;;;;;;;10.98;100.00;100825.25;20968520;28;20234;-66
2021/10/16 13:01:57;;;;;;;12.60;8.67;;;;;;;10.68;100.00;100833.19;20883310;28;20281;-67
2021/10/16 13:12:03;;;;;;;8.87;5.67;;;;;;;10.88;100.00;100842.72;20880283;28;20231;-67
2021/10/16 13:22:07;;;;;;;10.57;5.97;;;;;;;11.01;100.00;100832.19;20967938;28;20262;-65
2021/10/16 13:32:13;;;;;;;10.30;6.33;;;;;;;11.05;100.00;100837.28;20967458;28;20226;-67
2021/10/16 13:42:16;;;;;;;10.83;5.27;;;;;;;10.71;100.00;100842.84;20965248;28;20242;-61
2021/10/16 13:52:22;;;;;;;10.00;5.20;;;;;;;10.75;100.00;100849.69;20962081;28;20318;-68
2021/10/16 14:02:25;;;;;;;7.37;4.20;;;;;;;10.90;100.00;100842.63;20964720;28;20594;-67
2021/10/16 14:12:31;;;;;;;10.17;4.10;;;;;;;11.15;100.00;100833.13;20964158;28;20218;-66
2021/10/16 14:22:34;;;;;;;8.90;3.63;;;;;;;10.85;100.00;100832.25;20962818;28;20634;-68
2021/10/16 14:32:40;;;;;;;10.80;5.20;;;;;;;10.68;100.00;100833.19;20944086;28;20239;-65
2021/10/16 14:42:44;;;;;;;6.60;4.37;;;;;;;10.65;100.00;100844.03;20962331;28;20349;-66
2021/10/16 14:52:49;;;;;;;6.90;4.70;;;;;;;10.51;100.00;100840.41;20898546;28;20310;-66
2021/10/16 15:02:53;;;;;;;7.40;5.67;;;;;;;10.33;100.00;100837.81;20878280;28;20230;-65
2021/10/16 15:23:20;;;;;;;6.17;3.90;;;;;;;9.74;100.00;100831.22;20956125;27;20635;-65
2021/10/16 15:33:25;;;;;;;10.03;6.20;;;;;;;9.52;100.00;100837.75;20938946;28;20226;-66
2021/10/16 15:43:30;;;;;;;6.10;4.67;;;;;;;9.45;100.00;100833.66;20942217;28;20244;-61
2021/10/16 15:53:34;;;;;;;4.43;3.83;;;;;;;9.38;100.00;100841.97;20942292;28;20353;-64
2021/10/16 16:13:38;;;;;;;14.50;10.90;;;;;;;10.26;100.00;100868.47;20958851;27;20857;-70
2021/10/16 16:23:42;;;;;;;17.37;9.40;;;;;;;9.75;100.00;100867.56;20994281;27;20227;-61
2021/10/16 16:33:47;;;;;;;10.73;6.50;;;;;;;9.52;100.00;100869.72;20864983;28;20230;-61
2021/10/16 16:43:51;;;;;;;10.17;5.83;;;;;;;9.26;100.00;100884.34;20864480;28;20238;-65
2021/10/16 16:53:58;;;;;;;12.23;5.53;;;;;;;8.93;100.00;100877.09;20863350;28;20223;-62
2021/10/16 17:04:03;;;;;;;13.07;6.07;;;;;;;8.74;100.00;100891.31;20936570;28;20256;-64
2021/10/16 17:14:24;;;;;;;10.97;6.27;;;;;;;8.64;100.00;100890.91;20877843;28;20314;-62
2021/10/16 17:34:28;;;;;;;11.57;7.03;;;;;;;8.34;100.00;100892.31;20873002;27;20589;-68
2021/10/16 17:44:31;;;;;;;12.30;7.37;;;;;;;8.13;100.00;100888.81;20863443;28;20252;-63
2021/10/16 17:54:37;;;;;;;23.87;10.87;;;;;;;8.13;100.00;100905.63;20868601;28;20217;-61
2021/10/16 18:04:41;;;;;;;15.00;8.03;;;;;;;8.12;100.00;100898.56;20965059;28;20297;-61
2021/10/16 18:24:42;;;;;;;17.83;9.50;;;;;;;8.19;100.00;100900.03;21147016;27;20998;-61
2021/10/16 18:44:44;;;;;;;10.30;6.97;;;;;;;8.45;100.00;100888.22;21045121;27;20586;-72
2021/10/16 18:54:48;;;;;;;11.03;7.17;;;;;;;8.47;100.00;100893.47;21032773;28;20232;-72
2021/10/16 19:14:50;;;;;;;11.57;7.67;;;;;;;8.58;100.00;100891.19;21077942;27;20308;-70
2021/10/16 19:24:55;;;;;;;10.83;7.20;;;;;;;8.62;100.00;100898.09;21128642;28;20267;-69
2021/10/16 19:35:00;;;;;;;8.87;6.77;;;;;;;8.63;100.00;100894.50;21106903;28;20236;-68
2021/10/16 19:45:05;;;;;;;8.67;5.87;;;;;;;8.59;100.00;100892.91;21128202;28;20249;-70
2021/10/16 19:55:14;;;;;;;12.17;6.80;;;;;;;8.51;100.00;100908.38;21109063;28;20221;-72
2021/10/16 20:05:18;;;;;;;12.77;7.93;;;;;;;8.50;100.00;100903.97;21111876;28;20228;-68
2021/10/16 20:15:23;;;;;;;10.60;6.37;;;;;;;8.52;100.00;100904.78;21113738;28;20228;-73
2021/10/16 20:25:28;;;;;;;9.57;6.30;;;;;;;8.51;100.00;100906.56;21043963;28;20225;-72
2021/10/16 20:35:33;;;;;;;10.10;5.93;;;;;;;8.48;100.00;100916.47;21064760;28;20232;-64
2021/10/16 20:45:37;;;;;;;11.83;6.43;;;;;;;8.48;100.00;100917.34;21050881;28;20226;-71
2021/10/16 20:55:43;;;;;;;8.90;5.50;;;;;;;8.50;100.00;100920.81;21066735;28;20653;-70
2021/10/16 21:05:52;;;;;;;8.60;5.50;;;;;;;8.51;100.00;100921.66;21043964;28;20318;-71
2021/10/16 21:25:57;;;;;;;12.50;6.63;;;;;;;8.35;100.00;100917.97;20946649;27;20579;-71
2021/10/16 21:36:01;;;;;;;9.53;6.40;;;;;;;8.18;100.00;100908.94;20961111;28;20286;-72
2021/10/16 21:46:09;;;;;;;9.17;6.40;;;;;;;7.95;100.00;100906.44;20945884;28;20224;-73
2021/10/16 22:06:11;;;;;;;10.57;6.23;;;;;;;7.94;100.00;100907.38;20874499;28;20592;-73
2021/10/16 22:26:14;;;;;;;13.10;6.23;;;;;;;7.83;100.00;100915.81;20980164;27;20649;-72
2021/10/16 22:56:30;;;;;;;11.03;6.07;;;;;;;7.69;100.00;100904.06;21190000;27;21142;-67
2021/10/16 23:06:34;;;;;;;9.33;6.50;;;;;;;7.65;100.00;100913.09;21197648;27;20257;-70
2021/10/16 23:16:39;;;;;;;10.17;6.97;;;;;;;7.39;100.00;100888.50;21197935;27;20291;-70
2021/10/16 23:36:41;;;;;;;9.80;6.67;;;;;;;7.52;100.00;100916.25;21042126;27;20734;-72
2021/10/16 23:46:44;;;;;;;10.33;6.90;;;;;;;7.57;100.00;100911.63;21035042;28;20298;-72
2021/10/16 23:56:49;;;;;;;12.43;7.40;;;;;;;7.59;100.00;100909.78;21044655;28;20310;-70
